This is the latest recevied weather packets stored in our database for station/object EA5LU-10. If no packets are shown the sender has not sent any weather packets the latest 10 day(s).
| Time | Temp. | Humidity | Pressure | Rain* | Wind** | Luminosity | Snow |
|---|---|---|---|---|---|---|---|
| 1777966810 | 21.11° C | 42% | 1003.5 hPa | - | - | - | - |
| 1777965909 | 20.56° C | 46% | 1003.5 hPa | - | - | - | - |
| 1777965008 | 19.44° C | 48% | 1003.5 hPa | - | - | - | - |
| 1777964108 | 18.89° C | 50% | 1003.5 hPa | - | - | - | - |
| 1777963207 | 17.78° C | 53% | 1003.5 hPa | - | - | - | - |
| 1777962306 | 17.22° C | 57% | 1003.4 hPa | - | - | - | - |
| 1777961405 | 16.11° C | 59% | 1003.4 hPa | - | - | - | - |
| 1777960504 | 16.11° C | 59% | 1003.3 hPa | - | - | - | - |
| 1777959603 | 16.11° C | 58% | 1003.2 hPa | - | - | - | - |
| 1777958703 | 16.11° C | 58% | 1003 hPa | - | - | - | - |
| 1777957802 | 16.67° C | 57% | 1002.9 hPa | - | - | - | - |
| 1777956901 | 17.22° C | 54% | 1002.7 hPa | - | - | - | - |
| 1777956000 | 17.22° C | 53% | 1002.6 hPa | - | - | - | - |
| 1777955099 | 16.67° C | 57% | 1002.8 hPa | - | - | - | - |
| 1777954199 | 16.67° C | 56% | 1002.8 hPa | - | - | - | - |
| 1777953298 | 17.22° C | 55% | 1002.8 hPa | - | - | - | - |
| 1777952397 | 17.22° C | 55% | 1002.8 hPa | - | - | - | - |
| 1777951496 | 17.22° C | 56% | 1002.8 hPa | - | - | - | - |
| 1777950595 | 17.22° C | 56% | 1002.8 hPa | - | - | - | - |
| 1777949694 | 17.22° C | 57% | 1002.9 hPa | - | - | - | - |
| 1777948793 | 17.22° C | 64% | 1002.8 hPa | - | - | - | - |
| 1777947892 | 16.67° C | 68% | 1002.9 hPa | - | - | - | - |
| 1777946992 | 16.67° C | 66% | 1002.8 hPa | - | - | - | - |
| 1777946091 | 16.67° C | 68% | 1002.9 hPa | - | - | - | - |
| 1777945190 | 17.22° C | 71% | 1002.9 hPa | - | - | - | - |
* Rain since midnight (hover to see other rain measurements)
** Current wind speed in m/s (hover to see current wind gust speed)